Time;durP1;ratioP1;P1;durP2;ratioP2;P2;SDS_P1;SDS_P2;PMS_P1;PMS_P2;Temp;Humidity;BMP_temperature;BMP_pressure;BME280_temperature;BME280_humidity;BME280_pressure;Samples;Min_cycle;Max_cycle;Signal;HPM_P1;HPM_P2
2022/08/25 00:00:30;;;;;;;9.45;4.88;;;;;;;;;;6091927;23;20301;-77
2022/08/25 00:02:56;;;;;;;8.75;4.95;;;;;;;;;;6093288;23;20045;-77
2022/08/25 00:05:26;;;;;;;8.52;4.97;;;;;;;;;;6091657;23;20018;-77
2022/08/25 00:07:52;;;;;;;9.55;4.43;;;;;;;;;;6092685;23;20018;-77
2022/08/25 00:10:17;;;;;;;8.77;4.50;;;;;;;;;;6067434;23;20411;-77
2022/08/25 00:12:42;;;;;;;8.88;4.45;;;;;;;;;;6092510;23;20518;-77
2022/08/25 00:15:08;;;;;;;8.35;4.60;;;;;;;;;;6093020;23;20332;-77
2022/08/25 00:17:34;;;;;;;6.30;4.53;;;;;;;;;;6091234;23;20394;-77
2022/08/25 00:19:59;;;;;;;9.50;5.03;;;;;;;;;;6092881;23;20026;-77
2022/08/25 00:22:24;;;;;;;14.23;4.90;;;;;;;;;;6092310;23;20025;-77
2022/08/25 00:24:50;;;;;;;10.85;4.90;;;;;;;;;;6092259;23;20026;-77
2022/08/25 00:27:15;;;;;;;9.15;5.10;;;;;;;;;;6091631;23;20557;-76
2022/08/25 00:29:41;;;;;;;9.88;5.00;;;;;;;;;;6067755;23;20076;-77
2022/08/25 00:32:06;;;;;;;8.88;4.68;;;;;;;;;;6117326;23;20085;-77
2022/08/25 00:34:35;;;;;;;8.32;4.80;;;;;;;;;;6068079;23;20010;-77
2022/08/25 00:37:03;;;;;;;10.18;4.97;;;;;;;;;;6091971;23;20028;-77
2022/08/25 00:39:29;;;;;;;;;;;;;;;;;;6068683;23;20073;-77
2022/08/25 00:41:57;;;;;;;16.10;5.75;;;;;;;;;;6116636;23;19913;-77
2022/08/25 00:44:25;;;;;;;10.43;4.60;;;;;;;;;;6068061;23;20088;-77
2022/08/25 00:46:53;;;;;;;9.18;5.03;;;;;;;;;;6068255;23;20088;-77
2022/08/25 00:49:33;;;;;;;10.02;4.85;;;;;;;;;;6075681;23;20509;-77
2022/08/25 00:52:14;;;;;;;8.68;5.03;;;;;;;;;;6115296;23;20354;-77
2022/08/25 00:55:04;;;;;;;10.55;4.60;;;;;;;;;;6091579;23;20454;-77
2022/08/25 00:57:34;;;;;;;6.55;4.35;;;;;;;;;;6116361;23;20409;-77
2022/08/25 01:00:00;;;;;;;10.30;5.32;;;;;;;;;;6116716;23;20028;-78
2022/08/25 01:02:26;;;;;;;9.80;4.80;;;;;;;;;;6091167;23;20133;-77
2022/08/25 01:04:51;;;;;;;9.32;4.93;;;;;;;;;;6092125;23;20064;-77
2022/08/25 01:07:18;;;;;;;9.07;4.57;;;;;;;;;;6115858;23;22325;-77
2022/08/25 01:09:45;;;;;;;7.72;4.88;;;;;;;;;;6116057;23;20088;-77
2022/08/25 01:12:11;;;;;;;8.25;4.57;;;;;;;;;;6114650;23;20022;-77
2022/08/25 01:14:36;;;;;;;10.32;5.20;;;;;;;;;;6115657;23;20047;-77
2022/08/25 01:17:02;;;;;;;9.20;4.70;;;;;;;;;;6091197;23;20018;-77
2022/08/25 01:19:28;;;;;;;9.52;4.50;;;;;;;;;;6092070;23;20009;-77
2022/08/25 01:21:54;;;;;;;8.65;4.97;;;;;;;;;;6116484;23;20022;-77
2022/08/25 01:24:28;;;;;;;8.75;5.15;;;;;;;;;;6116493;23;20080;-77
2022/08/25 01:26:53;;;;;;;7.63;4.88;;;;;;;;;;6117512;23;20022;-77
2022/08/25 01:29:24;;;;;;;10.63;5.07;;;;;;;;;;6091496;23;20101;-77
2022/08/25 01:32:12;;;;;;;8.57;5.22;;;;;;;;;;6114868;23;20026;-77
2022/08/25 01:34:40;;;;;;;9.02;4.97;;;;;;;;;;6091610;23;20069;-77
2022/08/25 01:37:06;;;;;;;9.85;4.90;;;;;;;;;;6115200;23;20353;-77
2022/08/25 01:39:37;;;;;;;7.78;4.93;;;;;;;;;;6092049;23;20022;-77
2022/08/25 01:42:05;;;;;;;10.32;5.57;;;;;;;;;;6091393;23;20018;-77
2022/08/25 01:44:33;;;;;;;8.93;5.00;;;;;;;;;;6117988;23;20044;-77
2022/08/25 01:47:02;;;;;;;10.48;5.38;;;;;;;;;;6115221;23;20064;-77
2022/08/25 01:49:27;;;;;;;8.95;4.93;;;;;;;;;;6115691;23;20022;-77
2022/08/25 01:52:04;;;;;;;11.63;5.53;;;;;;;;;;6116230;23;20061;-77
2022/08/25 01:54:30;;;;;;;9.07;5.68;;;;;;;;;;6116061;23;20025;-77
2022/08/25 01:56:57;;;;;;;11.95;5.65;;;;;;;;;;6115925;23;20093;-77
2022/08/25 01:59:23;;;;;;;7.25;4.78;;;;;;;;;;6091710;23;20014;-77
2022/08/25 02:01:48;;;;;;;13.68;5.82;;;;;;;;;;6115404;23;20454;-76
2022/08/25 02:04:13;;;;;;;9.75;5.10;;;;;;;;;;6117440;23;20046;-77
2022/08/25 02:06:39;;;;;;;8.27;5.35;;;;;;;;;;6116968;23;20018;-77
2022/08/25 02:09:10;;;;;;;9.00;5.15;;;;;;;;;;6116071;23;20025;-77
2022/08/25 02:11:37;;;;;;;12.00;5.63;;;;;;;;;;6115560;23;20350;-77
2022/08/25 02:14:03;;;;;;;11.95;6.10;;;;;;;;;;6115595;23;20709;-77
2022/08/25 02:16:31;;;;;;;11.23;5.72;;;;;;;;;;6090194;23;20041;-77
2022/08/25 02:18:58;;;;;;;11.13;6.25;;;;;;;;;;6091783;23;20025;-78
2022/08/25 02:21:23;;;;;;;9.80;6.13;;;;;;;;;;6091164;23;20359;-78
2022/08/25 02:23:49;;;;;;;10.00;5.50;;;;;;;;;;6115852;23;20017;-78
2022/08/25 02:26:17;;;;;;;9.02;5.78;;;;;;;;;;6115988;23;20022;-79
2022/08/25 02:28:44;;;;;;;11.10;5.70;;;;;;;;;;6116074;23;20017;-79
2022/08/25 02:31:10;;;;;;;10.50;6.28;;;;;;;;;;6090965;23;20351;-79
2022/08/25 02:33:36;;;;;;;10.40;6.30;;;;;;;;;;6090375;23;20024;-78
2022/08/25 02:36:02;;;;;;;9.95;6.63;;;;;;;;;;6091038;23;20041;-79
2022/08/25 02:38:28;;;;;;;13.70;6.32;;;;;;;;;;6091604;23;20459;-78
2022/08/25 02:40:54;;;;;;;10.18;6.45;;;;;;;;;;6091092;23;20024;-78
2022/08/25 02:43:20;;;;;;;12.80;6.38;;;;;;;;;;6115282;23;20324;-78
2022/08/25 02:45:45;;;;;;;9.20;5.75;;;;;;;;;;6090688;23;20014;-78
2022/08/25 02:48:11;;;;;;;11.63;6.57;;;;;;;;;;6115496;23;20101;-78
2022/08/25 02:50:36;;;;;;;11.60;6.90;;;;;;;;;;6114869;23;20028;-78
2022/08/25 02:53:01;;;;;;;12.35;7.18;;;;;;;;;;6090977;23;20010;-78
2022/08/25 02:55:27;;;;;;;11.50;6.93;;;;;;;;;;6115583;23;20474;-78
2022/08/25 02:57:52;;;;;;;13.95;6.95;;;;;;;;;;6115805;23;20022;-79
2022/08/25 03:00:18;;;;;;;11.93;7.30;;;;;;;;;;6114742;23;20018;-79
2022/08/25 03:02:43;;;;;;;9.45;6.95;;;;;;;;;;6091448;23;20014;-79
2022/08/25 03:05:10;;;;;;;13.15;7.22;;;;;;;;;;6091137;23;20473;-78
2022/08/25 03:07:37;;;;;;;10.20;6.63;;;;;;;;;;6115252;23;20593;-78
2022/08/25 03:10:09;;;;;;;13.30;7.82;;;;;;;;;;6115246;23;20014;-78
2022/08/25 03:12:34;;;;;;;11.98;6.88;;;;;;;;;;6114346;23;20017;-79
2022/08/25 03:15:00;;;;;;;15.40;7.43;;;;;;;;;;6091338;23;20105;-78
2022/08/25 03:17:28;;;;;;;10.23;7.03;;;;;;;;;;6114920;23;20466;-78
2022/08/25 03:19:53;;;;;;;11.30;6.90;;;;;;;;;;6117738;23;20041;-78
2022/08/25 03:22:20;;;;;;;14.50;7.47;;;;;;;;;;6089284;23;20037;-79
2022/08/25 03:24:45;;;;;;;10.25;6.60;;;;;;;;;;6091931;23;20010;-79
2022/08/25 03:27:10;;;;;;;11.35;7.32;;;;;;;;;;6090098;23;20106;-78
2022/08/25 03:29:36;;;;;;;9.20;7.00;;;;;;;;;;6091642;23;20057;-78
2022/08/25 03:32:01;;;;;;;13.38;7.13;;;;;;;;;;6090065;23;20030;-78
2022/08/25 03:34:28;;;;;;;13.38;7.63;;;;;;;;;;6117242;23;20132;-77
2022/08/25 03:36:54;;;;;;;10.73;6.90;;;;;;;;;;6092701;23;20434;-77
2022/08/25 03:39:22;;;;;;;11.10;8.02;;;;;;;;;;6092818;23;20014;-77
2022/08/25 03:41:48;;;;;;;;;;;;;;;;;;6092677;23;20006;-76
2022/08/25 03:44:15;;;;;;;10.48;7.15;;;;;;;;;;6092820;23;19920;-75
2022/08/25 03:46:43;;;;;;;12.02;7.30;;;;;;;;;;6091961;23;20350;-75
2022/08/25 03:49:10;;;;;;;11.10;6.88;;;;;;;;;;6091621;23;20057;-77
2022/08/25 03:51:40;;;;;;;10.68;7.10;;;;;;;;;;6116977;23;20021;-77
2022/08/25 03:54:07;;;;;;;9.48;7.53;;;;;;;;;;6116737;23;20450;-76
2022/08/25 03:56:32;;;;;;;13.45;7.20;;;;;;;;;;6092106;23;20037;-76
2022/08/25 03:58:58;;;;;;;10.10;6.82;;;;;;;;;;6093066;23;20387;-76
2022/08/25 04:01:24;;;;;;;10.63;7.25;;;;;;;;;;6116347;23;20068;-76
2022/08/25 04:03:49;;;;;;;10.35;6.65;;;;;;;;;;6116684;23;20085;-76
2022/08/25 04:06:16;;;;;;;10.98;6.93;;;;;;;;;;6116367;23;20441;-76
2022/08/25 04:08:42;;;;;;;12.18;7.90;;;;;;;;;;6116687;23;20085;-78
2022/08/25 04:11:18;;;;;;;12.63;8.05;;;;;;;;;;6091702;23;20165;-78
2022/08/25 04:13:45;;;;;;;11.18;7.75;;;;;;;;;;6091741;23;20021;-78
2022/08/25 04:16:16;;;;;;;12.77;8.03;;;;;;;;;;6116321;23;20068;-78
2022/08/25 04:18:41;;;;;;;12.32;8.63;;;;;;;;;;6091212;23;20021;-78
2022/08/25 04:21:08;;;;;;;13.38;8.18;;;;;;;;;;6115056;23;20397;-78
2022/08/25 04:23:39;;;;;;;14.55;8.18;;;;;;;;;;6091078;23;20686;-79
2022/08/25 04:26:14;;;;;;;10.73;7.75;;;;;;;;;;6090847;23;20022;-79
2022/08/25 04:28:40;;;;;;;11.32;8.15;;;;;;;;;;6090567;23;20022;-79
2022/08/25 04:31:10;;;;;;;11.13;7.90;;;;;;;;;;6090075;23;20089;-79
2022/08/25 04:33:37;;;;;;;13.63;7.70;;;;;;;;;;6090972;23;20017;-78
2022/08/25 04:36:04;;;;;;;13.55;8.60;;;;;;;;;;6114969;23;20451;-78
2022/08/25 04:38:31;;;;;;;15.20;7.80;;;;;;;;;;6115170;23;20454;-78
2022/08/25 04:41:02;;;;;;;15.35;7.95;;;;;;;;;;6115574;23;20077;-78
2022/08/25 04:43:29;;;;;;;11.48;8.02;;;;;;;;;;6114961;23;20018;-78
2022/08/25 04:45:54;;;;;;;13.63;8.35;;;;;;;;;;6115191;23;20026;-78
2022/08/25 04:48:20;;;;;;;13.50;8.38;;;;;;;;;;6090576;23;20021;-78
2022/08/25 04:50:45;;;;;;;14.52;7.95;;;;;;;;;;6090144;23;20026;-78
2022/08/25 04:53:11;;;;;;;12.98;8.07;;;;;;;;;;6090377;23;20363;-78
2022/08/25 04:55:45;;;;;;;11.48;7.22;;;;;;;;;;6066887;23;20155;-78
2022/08/25 04:58:11;;;;;;;9.88;7.22;;;;;;;;;;6066658;23;20334;-78
2022/08/25 05:00:37;;;;;;;11.05;7.28;;;;;;;;;;6066643;23;20390;-78
2022/08/25 05:03:03;;;;;;;14.82;8.18;;;;;;;;;;6066655;23;20167;-78
2022/08/25 05:05:29;;;;;;;14.23;7.82;;;;;;;;;;6066783;23;20018;-78
2022/08/25 05:07:55;;;;;;;12.73;7.80;;;;;;;;;;6066968;23;20020;-78
2022/08/25 05:10:20;;;;;;;11.07;7.57;;;;;;;;;;6065931;23;20085;-78
2022/08/25 05:12:46;;;;;;;14.95;8.57;;;;;;;;;;6067000;23;20349;-78
2022/08/25 05:17:55;;;;;;;13.02;7.78;;;;;;;;;;6095072;23;20037;-79
2022/08/25 05:20:26;;;;;;;13.02;7.53;;;;;;;;;;6066955;23;20010;-78
2022/08/25 05:22:51;;;;;;;12.93;8.23;;;;;;;;;;6066875;23;20443;-77
2022/08/25 05:25:17;;;;;;;15.23;8.30;;;;;;;;;;6066418;23;20021;-78
2022/08/25 05:27:42;;;;;;;13.45;8.90;;;;;;;;;;6090201;23;20029;-77
2022/08/25 05:30:10;;;;;;;12.45;8.73;;;;;;;;;;6090580;23;20021;-79
2022/08/25 05:32:35;;;;;;;14.75;8.98;;;;;;;;;;6065282;23;20085;-78
2022/08/25 05:35:01;;;;;;;12.57;8.50;;;;;;;;;;6091122;23;20044;-78
2022/08/25 05:37:26;;;;;;;13.85;8.98;;;;;;;;;;6066476;23;20474;-78
2022/08/25 05:39:51;;;;;;;14.52;8.98;;;;;;;;;;6091373;23;20465;-78
2022/08/25 05:42:17;;;;;;;14.75;9.32;;;;;;;;;;6115322;23;20137;-78
2022/08/25 05:44:42;;;;;;;15.55;10.68;;;;;;;;;;6066715;23;20025;-78
2022/08/25 05:47:09;;;;;;;15.18;9.98;;;;;;;;;;6065360;23;20466;-85
2022/08/25 05:49:35;;;;;;;17.70;10.70;;;;;;;;;;6079425;23;20032;-84
2022/08/25 05:52:00;;;;;;;16.00;10.13;;;;;;;;;;6114953;23;20018;-85
2022/08/25 05:54:30;;;;;;;17.10;11.32;;;;;;;;;;6068709;23;20030;-85
2022/08/25 05:56:56;;;;;;;15.15;10.10;;;;;;;;;;6115358;23;20018;-84
2022/08/25 05:59:24;;;;;;;15.35;10.32;;;;;;;;;;6091214;23;20018;-85
2022/08/25 06:04:33;;;;;;;19.90;11.07;;;;;;;;;;6116723;23;20476;-85
2022/08/25 06:06:58;;;;;;;19.73;11.48;;;;;;;;;;6091237;23;20018;-84
2022/08/25 06:09:25;;;;;;;18.73;11.82;;;;;;;;;;6091584;23;20474;-84
2022/08/25 06:11:50;;;;;;;17.48;11.63;;;;;;;;;;6091065;23;20041;-84
2022/08/25 06:14:16;;;;;;;19.33;10.75;;;;;;;;;;6091581;23;20358;-84
2022/08/25 06:16:41;;;;;;;17.50;10.73;;;;;;;;;;6091375;23;20014;-85
2022/08/25 06:19:08;;;;;;;19.95;12.15;;;;;;;;;;6115544;23;20173;-84
2022/08/25 06:21:34;;;;;;;16.70;11.85;;;;;;;;;;6091880;23;20457;-85
2022/08/25 06:23:59;;;;;;;17.15;11.38;;;;;;;;;;6091456;23;20022;-85
2022/08/25 06:26:25;;;;;;;18.38;11.85;;;;;;;;;;6115948;23;20013;-85
2022/08/25 06:28:51;;;;;;;19.67;11.63;;;;;;;;;;6115463;23;20362;-84
2022/08/25 06:31:17;;;;;;;18.40;11.63;;;;;;;;;;6115749;23;20076;-84
2022/08/25 06:33:43;;;;;;;15.95;10.77;;;;;;;;;;6091016;23;20084;-85
2022/08/25 06:36:08;;;;;;;16.67;10.60;;;;;;;;;;6116643;23;20025;-84
2022/08/25 06:38:34;;;;;;;17.90;11.20;;;;;;;;;;6091211;23;20391;-85
2022/08/25 06:41:04;;;;;;;14.98;10.75;;;;;;;;;;6090629;23;20020;-86
2022/08/25 06:43:29;;;;;;;15.50;10.98;;;;;;;;;;6123204;23;20017;-83
2022/08/25 06:45:55;;;;;;;14.73;10.48;;;;;;;;;;6096276;23;20566;-84
2022/08/25 06:48:22;;;;;;;15.82;10.68;;;;;;;;;;6094553;23;20038;-85
2022/08/25 06:50:48;;;;;;;14.95;10.38;;;;;;;;;;6071131;23;20029;-86
2022/08/25 06:53:13;;;;;;;15.18;9.93;;;;;;;;;;6072070;23;20026;-85
2022/08/25 06:55:39;;;;;;;16.38;11.15;;;;;;;;;;6069069;23;20033;-85
2022/08/25 06:58:05;;;;;;;16.27;10.68;;;;;;;;;;6071910;23;20772;-84
2022/08/25 07:00:31;;;;;;;14.57;10.23;;;;;;;;;;6094656;23;20010;-84
2022/08/25 07:02:57;;;;;;;17.00;10.85;;;;;;;;;;6094847;23;20029;-83
2022/08/25 07:05:22;;;;;;;17.25;10.63;;;;;;;;;;6069459;23;20046;-85
2022/08/25 07:07:49;;;;;;;17.98;10.73;;;;;;;;;;6069742;23;20017;-84
2022/08/25 07:10:14;;;;;;;15.63;10.83;;;;;;;;;;6096879;23;20021;-83
2022/08/25 07:12:40;;;;;;;16.05;10.48;;;;;;;;;;6073653;23;20069;-85
2022/08/25 07:15:06;;;;;;;18.80;11.70;;;;;;;;;;6071693;23;20038;-84
2022/08/25 07:17:31;;;;;;;18.80;11.32;;;;;;;;;;6096598;23;20010;-85
2022/08/25 07:19:57;;;;;;;18.23;11.43;;;;;;;;;;6099654;23;20018;-86
2022/08/25 07:22:22;;;;;;;15.20;10.68;;;;;;;;;;6057103;23;20021;-85
2022/08/25 07:24:48;;;;;;;19.52;12.48;;;;;;;;;;6079097;23;21429;-86
2022/08/25 07:27:13;;;;;;;17.40;11.73;;;;;;;;;;6072704;23;20028;-86
2022/08/25 07:29:40;;;;;;;16.50;11.52;;;;;;;;;;6096537;23;20017;-85
2022/08/25 07:32:05;;;;;;;17.85;11.38;;;;;;;;;;6070084;23;20554;-85
2022/08/25 07:37:15;;;;;;;18.75;11.75;;;;;;;;;;6087808;23;20056;-85
2022/08/25 07:39:41;;;;;;;19.38;12.93;;;;;;;;;;6097648;23;20713;-85
2022/08/25 07:42:07;;;;;;;22.23;12.95;;;;;;;;;;6095412;23;20029;-84
2022/08/25 07:44:33;;;;;;;17.92;12.20;;;;;;;;;;6074503;23;20017;-85
2022/08/25 07:46:58;;;;;;;20.38;12.40;;;;;;;;;;6072238;23;20022;-85
2022/08/25 07:49:25;;;;;;;18.58;13.38;;;;;;;;;;6080492;23;20029;-85
2022/08/25 07:51:52;;;;;;;20.73;12.95;;;;;;;;;;6092733;23;20102;-85
2022/08/25 07:54:17;;;;;;;20.13;13.93;;;;;;;;;;6093025;23;20014;-85
2022/08/25 07:56:43;;;;;;;19.05;12.68;;;;;;;;;;6116880;23;20021;-84
2022/08/25 07:59:09;;;;;;;20.63;12.40;;;;;;;;;;6116439;23;20026;-84
2022/08/25 08:01:34;;;;;;;17.90;12.13;;;;;;;;;;6116794;23;20022;-84
2022/08/25 08:03:59;;;;;;;19.70;11.65;;;;;;;;;;6092003;23;20367;-83
2022/08/25 08:06:25;;;;;;;17.38;12.18;;;;;;;;;;6079166;23;20022;-85
2022/08/25 08:08:52;;;;;;;17.30;11.25;;;;;;;;;;6092092;23;20513;-84
2022/08/25 08:11:25;;;;;;;18.63;10.47;;;;;;;;;;6104062;23;20017;-85
2022/08/25 08:13:51;;;;;;;16.30;11.93;;;;;;;;;;6092706;23;20325;-84
2022/08/25 08:16:18;;;;;;;15.93;11.35;;;;;;;;;;6092165;23;20018;-86
2022/08/25 08:18:44;;;;;;;18.65;11.55;;;;;;;;;;6092916;23;20403;-86
2022/08/25 08:21:19;;;;;;;17.38;11.25;;;;;;;;;;6078122;23;20077;-85
2022/08/25 08:23:47;;;;;;;17.33;11.07;;;;;;;;;;6084601;23;20034;-86
2022/08/25 08:26:12;;;;;;;15.65;10.82;;;;;;;;;;6092251;23;20029;-84
2022/08/25 08:28:38;;;;;;;16.38;10.70;;;;;;;;;;6092110;23;20014;-84
2022/08/25 08:31:04;;;;;;;19.38;11.50;;;;;;;;;;6116685;23;20025;-85
2022/08/25 08:33:30;;;;;;;16.13;10.95;;;;;;;;;;6115807;23;20010;-83
2022/08/25 08:36:03;;;;;;;15.38;10.50;;;;;;;;;;6116939;23;20093;-83
2022/08/25 08:38:28;;;;;;;17.02;10.65;;;;;;;;;;6117258;23;20025;-83
2022/08/25 08:44:24;;;;;;;16.73;10.80;;;;;;;;;;6116919;23;20489;-85
2022/08/25 08:47:02;;;;;;;18.55;12.05;;;;;;;;;;6115984;23;20046;-84
2022/08/25 08:50:09;;;;;;;18.67;10.95;;;;;;;;;;6116159;23;20057;-83
2022/08/25 08:52:42;;;;;;;16.38;10.95;;;;;;;;;;6095254;23;20025;-84
2022/08/25 08:55:23;;;;;;;16.65;10.40;;;;;;;;;;6091387;23;20490;-84
2022/08/25 08:57:51;;;;;;;15.48;10.68;;;;;;;;;;6092246;23;20021;-84
2022/08/25 09:00:16;;;;;;;14.65;9.43;;;;;;;;;;6091689;23;20029;-84
2022/08/25 09:03:17;;;;;;;15.43;10.48;;;;;;;;;;6116007;23;20017;-85
2022/08/25 09:05:47;;;;;;;14.65;9.77;;;;;;;;;;6060924;23;20498;-84
2022/08/25 09:08:17;;;;;;;15.40;9.52;;;;;;;;;;6116322;23;20382;-86
2022/08/25 09:11:04;;;;;;;15.25;9.43;;;;;;;;;;6090909;23;20022;-84
2022/08/25 09:13:35;;;;;;;15.38;8.90;;;;;;;;;;6115661;23;20068;-84
2022/08/25 09:19:34;;;;;;;11.98;8.10;;;;;;;;;;6096187;23;20074;-86
2022/08/25 09:22:05;;;;;;;10.30;6.88;;;;;;;;;;6103446;23;20018;-85
2022/08/25 09:24:31;;;;;;;11.02;7.70;;;;;;;;;;6091569;23;20018;-84
2022/08/25 09:27:32;;;;;;;10.68;7.13;;;;;;;;;;6116035;23;20029;-85
2022/08/25 09:30:08;;;;;;;12.55;7.25;;;;;;;;;;6109184;23;20439;-85
2022/08/25 09:32:38;;;;;;;9.73;6.85;;;;;;;;;;6114967;23;20022;-85
2022/08/25 09:35:05;;;;;;;10.73;7.32;;;;;;;;;;6092525;23;20017;-85
2022/08/25 09:37:31;;;;;;;;;;;;;;;;;;6091611;23;20009;-83
2022/08/25 09:39:56;;;;;;;14.93;8.07;;;;;;;;;;6116345;23;19983;-85
2022/08/25 09:42:21;;;;;;;12.13;6.97;;;;;;;;;;6090398;23;20316;-85
2022/08/25 09:44:47;;;;;;;15.30;7.85;;;;;;;;;;6083319;23;20017;-85
2022/08/25 09:47:19;;;;;;;10.52;6.75;;;;;;;;;;6091026;23;20018;-85
2022/08/25 09:49:48;;;;;;;9.25;6.43;;;;;;;;;;6116264;23;20479;-85
2022/08/25 09:52:35;;;;;;;11.52;6.05;;;;;;;;;;6114972;23;20022;-85
2022/08/25 09:55:12;;;;;;;8.82;5.28;;;;;;;;;;6115427;23;20017;-85
2022/08/25 09:57:54;;;;;;;10.07;5.32;;;;;;;;;;6113652;23;20386;-86
2022/08/25 10:00:27;;;;;;;10.60;5.47;;;;;;;;;;6089879;23;20033;-86
2022/08/25 10:03:16;;;;;;;9.27;5.43;;;;;;;;;;6080871;23;20021;-86
2022/08/25 10:05:45;;;;;;;10.20;5.20;;;;;;;;;;6113113;23;20127;-86
2022/08/25 10:08:13;;;;;;;9.25;4.97;;;;;;;;;;6116654;23;20024;-85
2022/08/25 10:10:44;;;;;;;9.00;5.55;;;;;;;;;;6112087;23;20022;-85
2022/08/25 10:13:17;;;;;;;10.25;5.18;;;;;;;;;;6091149;23;20455;-85
2022/08/25 10:15:43;;;;;;;8.00;4.25;;;;;;;;;;6090157;23;20461;-84
2022/08/25 10:18:25;;;;;;;9.70;5.05;;;;;;;;;;6091437;23;20021;-84
2022/08/25 10:21:13;;;;;;;8.02;4.53;;;;;;;;;;6090874;23;20347;-84
2022/08/25 10:23:43;;;;;;;9.13;4.95;;;;;;;;;;6090801;23;20117;-85
2022/08/25 10:26:22;;;;;;;10.18;4.97;;;;;;;;;;6090999;23;20278;-86
2022/08/25 10:28:50;;;;;;;7.68;4.55;;;;;;;;;;6093247;23;20014;-86
2022/08/25 10:31:21;;;;;;;8.05;4.40;;;;;;;;;;6116356;23;20459;-85
2022/08/25 10:34:04;;;;;;;8.23;4.80;;;;;;;;;;6091329;23;20010;-86
2022/08/25 10:36:29;;;;;;;7.88;4.53;;;;;;;;;;6115024;23;20092;-86
2022/08/25 10:38:57;;;;;;;8.02;4.32;;;;;;;;;;6117504;23;20038;-87
2022/08/25 10:41:47;;;;;;;10.68;5.15;;;;;;;;;;6090748;23;20006;-86
2022/08/25 10:47:33;;;;;;;11.05;4.50;;;;;;;;;;6119015;23;20028;-85
2022/08/25 10:50:44;;;;;;;9.63;4.30;;;;;;;;;;6118908;23;20026;-85
2022/08/25 10:53:14;;;;;;;11.10;4.78;;;;;;;;;;6110662;23;20049;-86
2022/08/25 10:56:03;;;;;;;13.50;5.03;;;;;;;;;;6115871;23;20038;-86
2022/08/25 10:58:47;;;;;;;7.22;4.10;;;;;;;;;;6092921;23;20417;-84
2022/08/25 11:01:12;;;;;;;9.32;4.22;;;;;;;;;;6118303;23;20024;-85
2022/08/25 11:03:51;;;;;;;7.65;4.07;;;;;;;;;;6118751;23;20014;-83
2022/08/25 11:06:22;;;;;;;6.88;4.20;;;;;;;;;;6082150;23;20013;-84
2022/08/25 11:08:57;;;;;;;8.05;4.10;;;;;;;;;;6091296;23;20096;-85
2022/08/25 11:11:25;;;;;;;8.63;4.10;;;;;;;;;;6091925;23;20141;-84
2022/08/25 11:14:04;;;;;;;10.15;4.00;;;;;;;;;;6115981;23;20473;-85
2022/08/25 11:16:40;;;;;;;8.68;4.07;;;;;;;;;;6080086;23;20068;-86
2022/08/25 11:19:25;;;;;;;7.30;3.90;;;;;;;;;;6118169;23;20028;-85
2022/08/25 11:22:03;;;;;;;5.55;3.45;;;;;;;;;;6096288;23;20021;-85
2022/08/25 11:24:35;;;;;;;7.40;3.00;;;;;;;;;;6094757;23;20021;-85
2022/08/25 11:27:03;;;;;;;10.15;3.30;;;;;;;;;;6116837;23;20018;-85
2022/08/25 11:29:32;;;;;;;9.32;3.10;;;;;;;;;;6109562;23;20014;-85
2022/08/25 11:31:59;;;;;;;8.35;3.40;;;;;;;;;;6103593;23;20381;-85
2022/08/25 11:34:27;;;;;;;9.30;3.55;;;;;;;;;;6110426;23;20101;-86
2022/08/25 11:36:59;;;;;;;8.68;3.78;;;;;;;;;;6093188;23;20014;-83
2022/08/25 11:39:50;;;;;;;10.23;4.25;;;;;;;;;;6094666;23;20037;-84
2022/08/25 11:42:41;;;;;;;7.80;3.70;;;;;;;;;;6119558;23;20046;-85
2022/08/25 11:45:24;;;;;;;7.55;3.53;;;;;;;;;;6118130;23;20530;-83
2022/08/25 11:48:16;;;;;;;6.85;3.45;;;;;;;;;;6120583;23;20485;-85
2022/08/25 11:51:00;;;;;;;9.45;4.05;;;;;;;;;;6106490;23;20451;-85
2022/08/25 11:53:41;;;;;;;12.60;4.38;;;;;;;;;;6118189;23;20024;-85
2022/08/25 11:56:11;;;;;;;9.57;4.70;;;;;;;;;;6090602;23;20039;-84
2022/08/25 11:58:43;;;;;;;9.98;4.35;;;;;;;;;;6092415;23;20311;-86
2022/08/25 12:01:37;;;;;;;12.63;4.63;;;;;;;;;;6116156;23;20521;-85
2022/08/25 12:04:32;;;;;;;10.63;4.43;;;;;;;;;;6067795;23;20072;-85
2022/08/25 12:07:09;;;;;;;9.50;4.18;;;;;;;;;;6116072;23;20024;-86
2022/08/25 12:09:47;;;;;;;11.73;4.35;;;;;;;;;;6118977;23;20018;-85
2022/08/25 12:12:27;;;;;;;11.02;4.38;;;;;;;;;;6115992;23;20478;-85
2022/08/25 12:14:53;;;;;;;9.20;4.32;;;;;;;;;;6116682;23;20017;-84
2022/08/25 12:17:23;;;;;;;10.40;4.72;;;;;;;;;;6091872;23;20018;-86
2022/08/25 12:19:52;;;;;;;10.73;5.07;;;;;;;;;;6092454;23;20034;-86
2022/08/25 12:22:25;;;;;;;8.82;4.82;;;;;;;;;;6092264;23;20451;-86
2022/08/25 12:24:57;;;;;;;10.27;4.50;;;;;;;;;;6119581;23;20030;-84
2022/08/25 12:27:44;;;;;;;8.75;4.63;;;;;;;;;;6091743;23;20418;-83
2022/08/25 12:30:21;;;;;;;11.05;4.80;;;;;;;;;;6092690;23;20353;-84
2022/08/25 12:33:01;;;;;;;11.40;4.45;;;;;;;;;;6092621;23;20451;-85
2022/08/25 12:35:28;;;;;;;11.18;5.32;;;;;;;;;;6116979;23;20021;-84
2022/08/25 12:38:07;;;;;;;15.38;4.88;;;;;;;;;;6118829;23;20396;-85
2022/08/25 12:40:35;;;;;;;11.90;4.93;;;;;;;;;;6091995;23;20394;-84
2022/08/25 12:43:07;;;;;;;8.65;4.40;;;;;;;;;;6118581;23;20081;-83
2022/08/25 12:45:37;;;;;;;11.93;4.43;;;;;;;;;;6092043;23;20050;-84
2022/08/25 12:48:30;;;;;;;11.02;4.63;;;;;;;;;;6119226;23;20010;-85
2022/08/25 12:50:58;;;;;;;9.35;4.70;;;;;;;;;;6030645;23;20030;-85
2022/08/25 12:53:35;;;;;;;10.80;4.68;;;;;;;;;;6039794;23;20025;-85
2022/08/25 12:56:14;;;;;;;10.77;3.88;;;;;;;;;;6039534;23;20026;-85
2022/08/25 12:58:52;;;;;;;9.55;4.40;;;;;;;;;;6039494;23;20016;-85
2022/08/25 13:01:36;;;;;;;12.20;4.40;;;;;;;;;;6063459;23;20018;-85
2022/08/25 13:04:32;;;;;;;9.65;4.57;;;;;;;;;;6062575;23;20011;-84
2022/08/25 13:07:23;;;;;;;11.45;4.65;;;;;;;;;;6061743;23;20011;-81
2022/08/25 13:10:33;;;;;;;12.73;4.43;;;;;;;;;;6040183;23;20471;-83
2022/08/25 13:13:36;;;;;;;10.88;4.40;;;;;;;;;;6062870;23;20033;-82
2022/08/25 13:16:07;;;;;;;11.60;4.65;;;;;;;;;;6088713;23;20447;-82
2022/08/25 13:18:37;;;;;;;10.68;4.40;;;;;;;;;;6063953;23;20041;-83
2022/08/25 13:21:22;;;;;;;11.85;4.68;;;;;;;;;;6045066;23;20014;-82
2022/08/25 13:23:50;;;;;;;13.02;4.47;;;;;;;;;;6050025;23;20157;-83
2022/08/25 13:26:22;;;;;;;8.85;4.28;;;;;;;;;;6039197;23;20459;-83
2022/08/25 13:29:23;;;;;;;11.55;4.90;;;;;;;;;;6039756;23;20034;-82
2022/08/25 13:31:57;;;;;;;11.45;4.47;;;;;;;;;;6056262;23;20395;-83
2022/08/25 13:34:29;;;;;;;12.30;4.32;;;;;;;;;;6039839;23;20057;-82
2022/08/25 13:39:39;;;;;;;9.18;4.28;;;;;;;;;;6067037;23;20527;-82
2022/08/25 13:42:11;;;;;;;10.23;4.05;;;;;;;;;;6062144;23;20034;-83
2022/08/25 13:44:37;;;;;;;7.60;3.78;;;;;;;;;;6039476;23;20021;-83
2022/08/25 13:47:15;;;;;;;11.52;4.18;;;;;;;;;;6038487;23;20019;-83
2022/08/25 13:49:45;;;;;;;13.35;4.72;;;;;;;;;;6070484;23;20026;-82
2022/08/25 13:52:25;;;;;;;8.52;4.00;;;;;;;;;;6090757;23;20592;-83
2022/08/25 13:54:51;;;;;;;7.43;3.80;;;;;;;;;;6092646;23;20040;-83
2022/08/25 13:57:24;;;;;;;9.85;4.20;;;;;;;;;;6079367;23;20014;-84
2022/08/25 13:59:53;;;;;;;9.82;4.28;;;;;;;;;;6116483;23;20458;-82
2022/08/25 14:03:07;;;;;;;6.88;3.80;;;;;;;;;;6115368;23;20021;-84
2022/08/25 14:05:41;;;;;;;8.90;4.05;;;;;;;;;;6106667;23;20017;-83
2022/08/25 14:08:28;;;;;;;9.52;3.78;;;;;;;;;;6092272;23;20037;-83
2022/08/25 14:11:07;;;;;;;;;;;;;;;;;;6091727;23;20041;-83
2022/08/25 14:13:33;;;;;;;12.57;4.65;;;;;;;;;;6092603;23;19917;-83
2022/08/25 14:16:13;;;;;;;11.32;4.57;;;;;;;;;;6117943;23;20017;-83
2022/08/25 14:18:45;;;;;;;8.13;3.90;;;;;;;;;;6115802;23;20387;-83
2022/08/25 14:21:11;;;;;;;10.00;4.55;;;;;;;;;;6091013;23;20445;-83
2022/08/25 14:23:38;;;;;;;9.15;3.88;;;;;;;;;;6091906;23;20358;-84
2022/08/25 14:26:04;;;;;;;10.13;3.57;;;;;;;;;;6092314;23;20010;-83
2022/08/25 14:28:30;;;;;;;8.75;3.60;;;;;;;;;;6091941;23;20355;-83
2022/08/25 14:31:23;;;;;;;8.60;3.70;;;;;;;;;;6092065;23;20554;-84
2022/08/25 14:33:56;;;;;;;9.02;3.92;;;;;;;;;;6073092;23;20741;-84
2022/08/25 14:36:21;;;;;;;11.88;4.18;;;;;;;;;;6091622;23;20470;-82
2022/08/25 14:38:47;;;;;;;8.93;3.97;;;;;;;;;;6091603;23;20068;-84
2022/08/25 14:41:12;;;;;;;8.35;3.63;;;;;;;;;;6107102;23;20033;-85
2022/08/25 14:43:37;;;;;;;9.57;3.85;;;;;;;;;;6092434;23;20045;-84
2022/08/25 14:46:09;;;;;;;9.85;3.83;;;;;;;;;;6091812;23;20510;-83
2022/08/25 14:48:40;;;;;;;11.13;3.85;;;;;;;;;;6090921;23;20446;-84
2022/08/25 14:51:05;;;;;;;10.48;3.85;;;;;;;;;;6066970;23;20010;-84
2022/08/25 14:53:31;;;;;;;8.07;3.60;;;;;;;;;;6068490;23;20346;-84
2022/08/25 14:55:57;;;;;;;10.38;3.90;;;;;;;;;;6068274;23;20069;-84
2022/08/25 14:58:22;;;;;;;7.05;3.90;;;;;;;;;;6067435;23;20369;-84
2022/08/25 15:00:48;;;;;;;8.05;3.45;;;;;;;;;;6067744;23;20439;-84
2022/08/25 15:03:17;;;;;;;7.82;3.67;;;;;;;;;;6092475;23;20042;-83
2022/08/25 15:05:43;;;;;;;8.10;3.50;;;;;;;;;;6090690;23;20021;-85
2022/08/25 15:10:53;;;;;;;8.15;3.75;;;;;;;;;;6095766;23;20021;-85
2022/08/25 15:13:20;;;;;;;10.02;3.42;;;;;;;;;;6067720;23;20014;-84
2022/08/25 15:15:46;;;;;;;10.32;3.67;;;;;;;;;;6067576;23;20093;-85